Portada
METAR-TAF:

METAR-TAF

Aeropuertos :

Aeropuerto de Bornholm

Rønne, Dinamarca

latitud: 55-04N, longitud: 014-45E, altitud: 16 m

Observación

El informe se hizo hace 22 minutos, a las 23:50 UTC
Viento 2 kt del noreste
Temperatura 11°C
Humedad 94%
Presión 1023 hPa
Visibilidad 10 km o más

METAR: EKRN 212350Z AUTO 05002KT 9999 BKN017/// OVC032/// 11/10 Q1023

Hora: 02:12 (00:12 UTC)

Pronóstico

El informe se hizo hace 7 horas y 9 minutos, a las 17:03 UTC
Pronóstico válido del 21 a las 18 UTC al 21 a las 22 UTC
Viento 2 kt con dirección variable
Visibilidad 10 km o más
Cielo nuboso a una altura de 2000 ft
Temporalmente
del 21 a las 18 UTC al 21 a las 22 UTC
Visibilidad: 4000 m
Cielo nuboso a una altura de 800 ft
lluvia, llovizna

TAF: EKRN 211703Z 2118/2122 VRB02KT 9999 BKN020 TEMPO 2118/2122 4000 RADZ BKN008

Observaciones y pronósticos meteorológicos de más de 4000 aeropuertos (mensajes METAR y TAF).

Los puntos amarillos y rojos representan las estaciones disponibles.

Ponga el ratón en el punto deseado para ver el nombre de la estación.

Haga clic para ver las observaciones y los pronósticos meteorológicos.

Para cambiar el mapa : haga clic en los botones verdes con una cruz de color negro para hacer un zoom, en el botón verde con un guión para alejar o en las flechas verdes para mapas adyacentes.


METAR-TAF: